Terminal Aerodrome Forecast
Issued by NWS

Home | Current Version | Previous Version | Text Only | Print | Product List | Glossary On
Versions: 1 2 3 4 5 6 7 8 9 10 11 12 13 14 15
647
FTUS45 KRIW 221810 AAA
TAFRKS
TAF AMD
KRKS 221810Z 2218/2318 26010G20KT P6SM SKC
     FM222000 28018G29KT P6SM SKC
     FM230230 34011KT P6SM SKC
     FM230500 05014KT P6SM SKC WS010/06030KT
     FM231000 06008KT P6SM SKC=

USA.gov is the U.S. government's official web portal to all federal, state and local government web resources and services.